.
WxDataArchive / Data Records for 2007-07-06
2007-07-05 July 2007 2007-07-07

Data Records for Friday, 06 July 2007

Time	Temp	Chill	HIndex	Humid	Dewpt	 Wind 	HiWind	WindDir	Rain 	Barom 
-----	----	-----	------	-----	-----	------	------	-------	-----	----- 
00:00	65.6	65.6	65.6	62	52.2	0	0	---	0.00	29.924 
00:05	65.5	65.5	65.5	63	52.6	0	0	---	0.00	29.920 
00:10	65.5	65.5	65.5	63	52.6	0	0	---	0.00	29.922 
00:15	65.5	65.5	65.5	63	52.6	0	0	---	0.00	29.922 
00:20	65.5	65.5	65.5	64	53.0	0	0	---	0.00	29.921 
00:25	65.5	65.5	65.5	64	53.0	0	0	---	0.00	29.921 
00:30	65.5	65.5	65.5	64	53.0	0	0	---	0.00	29.919 
00:35	65.6	65.6	65.6	64	53.1	0	0	---	0.00	29.920 
00:40	65.8	65.8	65.8	63	52.8	0	0	---	0.00	29.920 
00:45	66.0	66.0	66.0	63	53.0	0	0	---	0.00	29.920 
00:50	66.1	66.1	66.1	63	53.1	0	0	---	0.00	29.920 
00:55	66.1	66.1	66.1	64	53.6	0	0	---	0.00	29.920 
01:00	66.0	66.0	66.0	64	53.5	0	0	---	0.00	29.920 
01:05	65.8	65.8	65.8	64	53.3	0	0	---	0.00	29.920 
01:10	66.0	66.0	66.0	64	53.5	0	1	292	0.00	29.920 
01:15	66.3	66.3	66.3	64	53.7	0	1	292	0.00	29.921 
01:20	66.6	66.6	66.6	64	54.0	0	1	292	0.00	29.921 
01:25	66.6	66.6	66.6	64	54.0	0	0	---	0.00	29.921 
01:30	66.6	66.6	66.6	64	54.0	0	0	---	0.00	29.921 
01:35	66.6	66.6	66.6	65	54.5	0	1	292	0.00	29.921 
01:40	66.6	66.6	66.6	65	54.5	0	0	---	0.00	29.922 
01:45	66.4	66.4	66.4	66	54.7	0	0	---	0.00	29.922 
01:50	66.1	66.1	66.1	67	54.8	0	0	---	0.00	29.921 
01:55	66.0	66.0	66.0	68	55.1	0	0	---	0.00	29.922 
02:00	65.8	65.8	65.8	69	55.3	0	0	---	0.00	29.922 
02:05	65.5	65.5	65.5	69	55.1	0	0	---	0.00	29.922 
02:10	65.2	65.2	65.2	69	54.8	0	0	---	0.00	29.923 
02:15	64.8	64.8	64.8	71	55.2	0	0	---	0.00	29.923 
02:20	64.5	64.5	64.5	72	55.3	0	0	---	0.00	29.923 
02:25	64.3	64.3	64.3	73	55.5	0	0	---	0.00	29.924 
02:30	64.2	64.2	64.2	74	55.7	0	0	---	0.00	29.924 
02:35	64.0	64.0	64.0	74	55.5	0	0	---	0.00	29.924 
02:40	64.0	64.0	64.0	75	55.9	0	0	---	0.00	29.923 
02:45	63.9	63.9	63.9	75	55.8	0	0	---	0.00	29.924 
02:50	63.7	63.7	63.7	76	56.0	0	0	---	0.00	29.923 
02:55	63.4	63.4	63.4	76	55.7	0	0	---	0.00	29.923 
03:00	63.2	63.2	63.2	77	55.9	0	0	---	0.00	29.926 
03:05	63.1	63.1	63.1	78	56.1	0	0	---	0.00	29.926 
03:10	62.7	62.7	62.7	78	55.7	0	0	---	0.00	29.926 
03:15	62.6	62.6	62.6	79	56.0	0	0	---	0.00	29.926 
03:20	62.4	62.4	62.4	79	55.8	0	0	---	0.00	29.928 
03:25	62.3	62.3	62.3	80	56.0	0	0	---	0.00	29.933 
03:30	62.1	62.1	62.1	80	55.9	0	0	---	0.00	29.935 
03:35	62.0	62.0	62.0	81	56.1	0	0	---	0.00	29.937 
03:40	61.8	61.8	61.8	81	55.9	0	0	---	0.00	29.937 
03:45	61.6	61.6	61.6	81	55.7	0	0	---	0.00	29.937 
03:50	61.5	61.5	61.5	82	55.9	0	0	---	0.00	29.936 
03:55	61.5	61.5	61.5	82	55.9	0	0	---	0.00	29.935 
04:00	61.5	61.5	61.5	82	55.9	0	0	---	0.00	29.937 
04:05	61.5	61.5	61.5	80	55.3	0	0	---	0.00	29.938 
04:10	61.8	61.8	61.8	78	54.9	0	0	---	0.00	29.938 
04:15	62.0	62.0	62.0	77	54.7	0	0	---	0.00	29.937 
04:20	62.1	62.1	62.1	76	54.4	0	0	---	0.00	29.938 
04:25	62.4	62.4	62.4	75	54.4	0	0	---	0.00	29.938 
04:30	62.4	62.4	62.4	75	54.4	0	0	---	0.00	29.938 
04:35	62.4	62.4	62.4	75	54.4	0	0	---	0.00	29.939 
04:40	62.4	62.4	62.4	75	54.4	0	0	---	0.00	29.939 
04:45	62.3	62.3	62.3	75	54.3	0	0	---	0.00	29.939 
04:50	62.1	62.1	62.1	76	54.4	0	0	---	0.00	29.939 
04:55	62.0	62.0	62.0	76	54.3	0	0	---	0.00	29.939 
05:00	61.8	61.8	61.8	76	54.1	0	0	---	0.00	29.941 
05:05	61.6	61.6	61.6	77	54.3	0	0	---	0.00	29.943 
05:10	61.5	61.5	61.5	77	54.2	0	0	---	0.00	29.943 
05:15	61.3	61.3	61.3	77	54.0	0	0	---	0.00	29.944 
05:20	61.2	61.2	61.2	78	54.3	0	0	---	0.00	29.948 
05:25	61.0	61.0	61.0	79	54.4	0	0	---	0.00	29.948 
05:30	60.9	60.9	60.9	79	54.3	0	0	---	0.00	29.950 
05:35	60.7	60.7	60.7	80	54.5	0	0	---	0.00	29.952 
05:40	60.7	60.7	60.7	80	54.5	0	0	---	0.00	29.952 
05:45	60.5	60.5	60.5	81	54.6	0	0	---	0.00	29.951 
05:50	60.5	60.5	60.5	81	54.6	0	0	---	0.00	29.950 
05:55	60.7	60.7	60.7	81	54.8	0	0	---	0.00	29.952 
06:00	61.0	61.0	61.0	81	55.1	0	0	---	0.00	29.953 
06:05	61.3	61.3	61.3	79	54.7	0	0	---	0.00	29.957 
06:10	61.6	61.6	61.6	78	54.7	0	0	---	0.00	29.956 
06:15	61.8	61.8	61.8	77	54.5	0	0	---	0.00	29.956 
06:20	62.1	62.1	62.1	77	54.8	0	0	---	0.00	29.957 
06:25	63.1	63.1	63.1	75	55.0	0	0	---	0.00	29.957 
06:30	63.9	63.9	63.9	72	54.7	0	0	---	0.00	29.956 
06:35	65.0	65.0	65.0	70	55.0	0	0	---	0.00	29.957 
06:40	66.0	66.0	66.0	69	55.5	0	1	292	0.00	29.956 
06:45	66.8	66.8	66.8	66	55.1	0	0	---	0.00	29.958 
06:50	67.4	67.4	67.4	65	55.2	0	1	292	0.00	29.960 
06:55	68.1	68.1	68.1	65	55.9	0	1	292	0.00	29.959 
07:00	68.8	68.8	68.8	64	56.1	0	0	---	0.00	29.962 
07:05	69.4	69.4	69.4	62	55.8	0	1	292	0.00	29.966 
07:10	69.9	69.9	69.9	62	56.3	0	1	292	0.00	29.969 
07:15	70.3	70.3	70.3	61	56.2	0	1	292	0.00	29.969 
07:20	70.9	70.9	70.9	62	57.2	0	1	292	0.00	29.967 
07:25	71.5	71.5	71.5	62	57.8	0	1	292	0.00	29.967 
07:30	72.0	72.0	72.0	60	57.3	0	1	292	0.00	29.968 
07:35	72.1	72.1	72.1	59	57.0	0	3	292	0.00	29.969 
07:40	72.5	72.5	72.5	58	56.9	1	3	292	0.00	29.968 
07:45	73.0	73.0	73.0	58	57.3	0	1	292	0.00	29.969 
07:50	73.7	73.7	73.7	55	56.5	0	2	315	0.00	29.972 
07:55	73.9	73.9	73.9	55	56.7	0	1	338	0.00	29.974 
08:00	74.0	74.0	74.0	54	56.3	0	1	338	0.00	29.976 
08:05	74.4	74.4	74.4	53	56.1	0	2	338	0.00	29.981 
08:10	75.1	75.1	77.6	54	57.3	0	2	180	0.00	29.980 
08:15	75.8	75.8	78.0	51	56.4	0	1	180	0.00	29.980 
08:20	75.8	75.8	78.0	52	56.9	0	1	180	0.00	29.980 
08:25	76.0	76.0	78.1	51	56.5	0	1	180	0.00	29.981 
08:30	76.1	76.1	78.1	52	57.2	0	2	180	0.00	29.980 
08:35	76.3	76.3	78.2	50	56.3	0	2	180	0.00	29.981 
08:40	76.7	76.7	78.5	53	58.3	1	2	292	0.00	29.982 
08:45	77.0	77.0	78.6	51	57.5	0	1	45	0.00	29.984 
08:50	77.4	77.4	78.8	49	56.7	0	3	292	0.00	29.984 
08:55	77.9	77.9	79.1	49	57.2	1	4	0	0.00	29.983 
09:00	78.5	78.5	79.6	50	58.3	1	3	112	0.00	29.983 
09:05	79.0	79.0	79.8	48	57.6	1	3	112	0.00	29.986 
09:10	79.0	79.0	79.8	48	57.6	0	1	90	0.00	29.984 
09:15	79.0	79.0	79.8	48	57.6	0	2	112	0.00	29.983 
09:20	79.0	79.0	79.8	47	57.0	1	2	90	0.00	29.984 
09:25	79.0	79.0	79.9	49	58.2	0	2	45	0.00	29.983 
09:30	79.0	79.0	79.8	47	57.0	1	2	45	0.00	29.983 
09:35	79.0	79.0	79.7	46	56.4	1	3	338	0.00	29.982 
09:40	79.4	79.4	80.0	46	56.8	1	3	315	0.00	29.982 
09:45	79.8	79.8	80.2	45	56.5	1	4	315	0.00	29.983 
09:50	79.9	79.9	80.4	47	57.8	1	3	270	0.00	29.982 
09:55	80.3	80.3	80.4	43	55.7	0	3	112	0.00	29.982 
10:00	80.9	80.9	80.9	43	56.3	1	3	112	0.00	29.981 
10:05	81.2	81.2	81.1	43	56.5	0	4	45	0.00	29.984 
10:10	81.8	81.8	81.5	42	56.4	0	3	68	0.00	29.983 
10:15	82.0	82.0	81.6	41	55.9	1	2	338	0.00	29.984 
10:20	81.4	81.4	80.9	39	54.0	1	3	315	0.00	29.983 
10:25	81.1	81.1	80.7	40	54.5	2	5	292	0.00	29.986 
10:30	81.8	81.8	81.5	42	56.4	1	4	292	0.00	29.983 
10:35	82.6	82.6	82.0	40	55.8	1	3	158	0.00	29.983 
10:40	82.8	82.8	81.9	38	54.6	0	2	292	0.00	29.984 
10:45	82.8	82.8	81.9	38	54.6	1	2	0	0.00	29.985 
10:50	82.6	82.6	81.5	36	52.9	1	4	270	0.00	29.985 
10:55	82.6	82.6	81.6	37	53.7	1	5	0	0.00	29.986 
11:00	82.6	82.6	81.8	39	55.1	1	4	292	0.00	29.987 
11:05	83.0	83.0	82.2	39	55.5	0	1	292	0.00	29.990 
11:10	82.8	82.8	81.8	37	53.8	1	4	292	0.00	29.989 
11:15	83.0	83.0	82.1	38	54.7	1	5	90	0.00	29.988 
11:20	83.4	83.4	82.7	40	56.5	1	5	90	0.00	29.987 
11:25	83.6	83.6	82.4	36	53.8	2	5	90	0.00	29.987 
11:30	83.6	83.6	82.5	37	54.5	1	5	292	0.00	29.987 
11:35	84.1	84.1	82.7	35	53.5	1	3	112	0.00	29.986 
11:40	84.0	84.0	83.1	39	56.3	1	3	292	0.00	29.987 
11:45	84.3	84.3	82.7	34	52.8	1	6	90	0.00	29.987 
11:50	84.5	84.5	82.9	34	53.0	1	3	338	0.00	29.986 
11:55	84.5	84.5	83.5	38	56.1	1	4	270	0.00	29.986 
12:00	84.7	84.7	83.2	35	54.0	0	2	22	0.00	29.985 
12:05	84.9	84.9	83.1	33	52.6	2	6	90	0.00	29.985 
12:10	85.1	85.1	83.6	35	54.3	1	4	90	0.00	29.984 
12:15	85.5	85.5	84.0	35	54.7	1	3	112	0.00	29.983 
12:20	85.5	85.5	83.7	33	53.1	1	4	90	0.00	29.983 
12:25	85.5	85.5	83.6	32	52.2	2	5	90	0.00	29.982 
12:30	85.3	85.3	83.4	32	52.1	1	4	90	0.00	29.982 
12:35	85.1	85.1	82.9	30	50.1	1	2	90	0.00	29.982 
12:40	84.9	84.9	82.7	29	49.1	1	3	315	0.00	29.981 
12:45	85.1	85.1	83.6	35	54.3	1	2	90	0.00	29.976 
12:50	85.3	85.3	83.1	30	50.3	1	3	270	0.00	29.974 
12:55	85.7	85.7	83.5	30	50.7	1	4	292	0.00	29.972 
13:00	85.5	85.5	83.7	33	53.1	1	4	292	0.00	29.971 
13:05	85.5	85.5	83.3	30	50.5	1	4	315	0.00	29.971 
13:10	85.3	85.3	83.0	29	49.4	1	4	292	0.00	29.970 
13:15	85.1	85.1	83.2	32	51.9	1	2	292	0.00	29.969 
13:20	85.5	85.5	83.2	29	49.6	1	4	225	0.00	29.968 
13:25	85.7	85.7	83.5	30	50.7	2	4	225	0.00	29.966 
13:30	85.9	85.9	83.8	31	51.7	1	3	270	0.00	29.965 
13:35	86.3	86.3	84.2	31	52.1	1	3	292	0.00	29.963 
13:40	86.1	86.1	83.6	28	49.1	2	6	270	0.00	29.964 
13:45	85.9	85.9	83.5	29	49.9	1	3	292	0.00	29.961 
13:50	86.5	86.5	84.0	28	49.5	1	3	248	0.00	29.960 
13:55	86.7	86.7	84.1	28	49.7	1	3	248	0.00	29.959 
14:00	87.2	87.2	84.8	29	51.0	1	2	315	0.00	29.957 
14:05	87.2	87.2	84.5	27	49.1	1	3	315	0.00	29.959 
14:10	87.2	87.2	84.6	28	50.1	0	2	292	0.00	29.959 
14:15	87.6	87.6	84.9	27	49.4	1	3	270	0.00	29.959 
14:20	86.7	86.7	84.4	30	51.5	1	4	315	0.00	29.960 
14:25	85.5	85.5	83.2	29	49.6	0	2	315	0.00	29.959 
14:30	85.5	85.5	83.4	31	51.4	1	3	315	0.00	29.958 
14:35	86.1	86.1	84.1	32	52.8	0	2	315	0.00	29.957 
14:40	86.3	86.3	83.9	29	50.3	1	2	45	0.00	29.958 
14:45	86.3	86.3	83.9	29	50.3	1	3	292	0.00	29.957 
14:50	86.5	86.5	83.8	27	48.5	0	2	292	0.00	29.956 
14:55	86.5	86.5	84.4	31	52.2	0	2	0	0.00	29.956 
15:00	87.0	87.0	84.6	29	50.9	2	5	270	0.00	29.955 
15:05	87.2	87.2	84.8	29	51.0	0	3	292	0.00	29.956 
15:10	87.4	87.4	84.7	27	49.3	1	2	315	0.00	29.952 
15:15	87.6	87.6	84.9	27	49.4	1	3	338	0.00	29.953 
15:20	87.8	87.8	85.1	27	49.6	1	2	0	0.00	29.952 
15:25	87.6	87.6	84.9	27	49.4	1	3	0	0.00	29.952 
15:30	87.2	87.2	84.8	29	51.0	0	2	338	0.00	29.950 
15:35	87.0	87.0	84.4	28	49.9	0	2	338	0.00	29.948 
15:40	87.0	87.0	84.6	29	50.9	0	2	22	0.00	29.949 
15:45	87.0	87.0	84.6	29	50.9	1	2	22	0.00	29.949 
15:50	87.2	87.2	84.8	29	51.0	0	3	270	0.00	29.945 
15:55	87.2	87.2	84.6	28	50.1	1	2	270	0.00	29.945 
16:00	87.0	87.0	84.3	27	48.9	1	4	270	0.00	29.945 
16:05	87.6	87.6	85.0	28	50.4	1	3	315	0.00	29.944 
16:10	87.2	87.2	84.5	27	49.1	2	5	248	0.00	29.944 
16:15	86.7	86.7	84.1	28	49.7	1	3	248	0.00	29.943 
16:20	86.5	86.5	84.0	28	49.5	1	3	315	0.00	29.943 
16:25	87.0	87.0	84.6	29	50.9	0	2	270	0.00	29.942 
16:30	86.5	86.5	84.1	29	50.4	0	2	270	0.00	29.943 
16:35	86.3	86.3	83.8	28	49.3	1	3	90	0.00	29.941 
16:40	86.7	86.7	84.3	29	50.6	1	3	68	0.00	29.941 
16:45	86.3	86.3	83.8	28	49.3	1	4	0	0.00	29.941 
16:50	86.3	86.3	83.9	29	50.3	1	4	0	0.00	29.941 
16:55	86.3	86.3	83.7	27	48.3	1	3	22	0.00	29.940 
17:00	86.3	86.3	83.8	28	49.3	1	3	270	0.00	29.939 
17:05	86.1	86.1	83.7	29	50.1	0	2	0	0.00	29.941 
17:10	86.3	86.3	84.0	30	51.2	0	2	0	0.00	29.941 
17:15	86.7	86.7	84.4	30	51.5	1	3	270	0.00	29.938 
17:20	86.5	86.5	84.0	28	49.5	1	4	248	0.00	29.936 
17:25	86.3	86.3	83.8	28	49.3	1	3	0	0.00	29.938 
17:30	85.9	85.9	83.7	30	50.8	1	2	338	0.00	29.939 
17:35	85.9	85.9	83.7	30	50.8	0	3	0	0.00	29.939 
17:40	85.7	85.7	83.4	29	49.7	0	2	315	0.00	29.942 
17:45	85.7	85.7	83.6	31	51.5	0	2	315	0.00	29.941 
17:50	85.7	85.7	83.4	29	49.7	1	3	315	0.00	29.941 
17:55	85.3	85.3	83.1	30	50.3	1	2	292	0.00	29.940 
18:00	84.9	84.9	82.8	30	50.0	0	2	292	0.00	29.942 
18:05	85.1	85.1	82.8	29	49.2	1	3	270	0.00	29.935 
18:10	84.9	84.9	82.8	30	50.0	2	5	292	0.00	29.935 
18:15	84.7	84.7	82.8	32	51.5	0	2	315	0.00	29.935 
18:20	84.3	84.3	82.6	33	52.0	0	2	315	0.00	29.935 
18:25	84.3	84.3	82.6	33	52.0	1	4	270	0.00	29.936 
18:30	84.1	84.1	82.4	33	51.9	1	2	270	0.00	29.937 
18:35	84.0	84.0	82.5	34	52.6	0	1	315	0.00	29.937 
18:40	84.0	84.0	82.2	32	50.9	1	3	315	0.00	29.938 
18:45	84.0	84.0	82.1	31	50.1	0	1	315	0.00	29.938 
18:50	83.8	83.8	82.1	32	50.8	0	1	315	0.00	29.938 
18:55	83.8	83.8	82.2	33	51.6	0	2	315	0.00	29.938 
19:00	83.4	83.4	81.8	33	51.2	1	3	315	0.00	29.939 
19:05	83.0	83.0	81.7	35	52.5	0	1	270	0.00	29.935 
19:10	82.6	82.6	81.4	35	52.1	0	1	270	0.00	29.934 
19:15	82.4	82.4	81.2	35	52.0	0	1	270	0.00	29.935 
19:20	82.2	82.2	81.0	34	51.0	0	1	270	0.00	29.935 
19:25	82.2	82.2	80.9	33	50.2	1	2	248	0.00	29.935 
19:30	82.0	82.0	80.8	34	50.8	0	2	315	0.00	29.937 
19:35	81.8	81.8	80.7	34	50.7	0	1	315	0.00	29.935 
19:40	81.6	81.6	80.6	35	51.3	0	0	---	0.00	29.935 
19:45	81.2	81.2	80.4	36	51.7	0	1	315	0.00	29.936 
19:50	80.9	80.9	80.2	36	51.4	0	1	315	0.00	29.937 
19:55	80.5	80.5	80.0	37	51.8	0	1	315	0.00	29.937 
20:00	80.3	80.3	79.9	37	51.6	0	0	---	0.00	29.937 
20:05	80.1	80.1	79.8	38	52.2	0	1	315	0.00	29.934 
20:10	79.8	79.8	79.7	39	52.6	0	1	315	0.00	29.934 
20:15	79.6	79.6	79.6	39	52.4	0	0	---	0.00	29.934 
20:20	79.2	79.2	79.5	41	53.4	0	1	315	0.00	29.933 
20:25	78.8	78.8	79.3	42	53.7	0	1	315	0.00	29.933 
20:30	78.5	78.5	79.2	43	54.1	0	1	315	0.00	29.935 
20:35	78.3	78.3	79.1	44	54.6	0	2	315	0.00	29.939 
20:40	78.1	78.1	79.0	45	55.0	0	2	315	0.00	29.941 
20:45	77.9	77.9	79.0	46	55.4	0	2	270	0.00	29.940 
20:50	77.7	77.7	78.9	46	55.2	0	1	270	0.00	29.942 
20:55	77.4	77.4	78.7	47	55.6	0	1	270	0.00	29.944 
21:00	77.2	77.2	78.6	47	55.4	0	1	270	0.00	29.948 
21:05	76.8	76.8	78.4	48	55.6	0	1	270	0.00	29.946 
21:10	76.5	76.5	78.3	49	55.9	0	2	315	0.00	29.947 
21:15	76.1	76.1	78.1	49	55.5	0	1	315	0.00	29.949 
21:20	76.0	76.0	78.1	50	56.0	0	1	315	0.00	29.950 
21:25	75.6	75.6	77.9	50	55.6	0	0	---	0.00	29.950 
21:30	75.4	75.4	77.8	50	55.4	0	1	315	0.00	29.952 
21:35	75.3	75.3	77.7	50	55.4	0	1	315	0.00	29.951 
21:40	75.1	75.1	77.7	50	55.2	0	1	315	0.00	29.952 
21:45	74.9	74.9	74.9	51	55.5	0	1	315	0.00	29.952 
21:50	74.6	74.6	74.6	51	55.3	0	1	315	0.00	29.952 
21:55	74.4	74.4	74.4	52	55.6	0	1	315	0.00	29.951 
22:00	74.2	74.2	74.2	52	55.4	0	1	315	0.00	29.953 
22:05	73.9	73.9	73.9	53	55.7	0	0	---	0.00	29.951 
22:10	73.5	73.5	73.5	54	55.8	0	0	---	0.00	29.950 
22:15	73.2	73.2	73.2	54	55.5	0	0	---	0.00	29.951 
22:20	72.8	72.8	72.8	54	55.2	0	1	315	0.00	29.950 
22:25	72.5	72.5	72.5	55	55.4	0	0	---	0.00	29.950 
22:30	72.1	72.1	72.1	55	55.0	0	0	---	0.00	29.952 
22:35	72.1	72.1	72.1	55	55.0	0	0	---	0.00	29.952 
22:40	71.8	71.8	71.8	56	55.2	0	0	---	0.00	29.953 
22:45	71.6	71.6	71.6	57	55.5	0	0	---	0.00	29.954 
22:50	71.1	71.1	71.1	57	55.1	0	0	---	0.00	29.952 
22:55	70.8	70.8	70.8	58	55.3	0	0	---	0.00	29.952 
23:00	70.4	70.4	70.4	59	55.4	0	0	---	0.00	29.954 
23:05	69.9	69.9	69.9	60	55.4	0	0	---	0.00	29.953 
23:10	69.6	69.6	69.6	61	55.5	0	0	---	0.00	29.953 
23:15	69.3	69.3	69.3	61	55.3	0	0	---	0.00	29.953 
23:20	68.9	68.9	68.9	62	55.3	0	0	---	0.00	29.953 
23:25	68.4	68.4	68.4	62	54.9	0	0	---	0.00	29.952 
23:30	68.1	68.1	68.1	64	55.5	0	0	---	0.00	29.954 
23:35	67.8	67.8	67.8	64	55.2	0	0	---	0.00	29.954 
23:40	67.6	67.6	67.6	65	55.4	0	0	---	0.00	29.955 
23:45	67.3	67.3	67.3	65	55.1	0	0	---	0.00	29.954 
23:50	66.9	66.9	66.9	66	55.2	0	0	---	0.00	29.954 
23:55	66.6	66.6	66.6	67	55.3	0	0	---	0.00	29.954 

CoCoRaHS
IN-AL-39
A2 Web Hosting
Creative Commons License
GoDaddy
Look for:

loaded 2017-10-17 09:31:35 • last modified 2010-11-18 10:43:29
Privacy PolicyDisclaimer
• wx.awcolley.com is powered by PmWiki v.2002016 •
• all content (unless otherwise noted) © 2017 A W Colley